Midwest City, Oklahoma
Current Conditions -  °F | °C
As of 2:58 AM on Monday 20 Oct 2014 (Local Time) from KTIK Reporting Station
Clear Clear  
Wind Chill: 58°   Ceiling: Unl
Heat Index: 58°   Visibility: 10mi
Dew Point: 52°   Wind: 9mph
Humidity: 80%   Direction: 170°S
Pressure: 30.04"   Gusts: NA
Location:  35.46°N, 97.38°W
Report Text: KTIK 200758Z AUTO 17008KT 10SM CLR 14/11 A3004 RMK AO2 SLP173 T01440109 $
Loading
Personal Weather Stations






























Interactive Weather Map
Tropical Storm Tracking
New forecast layout! Learn more

10-Day Weather Forecast

Advertisements
Track Severe Weather on mobile